PH-0107 weather

Woodland Airpark
Magalang, Pampanga Province, Philippines

Public forecast

Using degrees Celsius for public forecast. Weather courtesy of forecast.io.

METAR (pilot weather report)

Closest report is Diosdado Macapagal International Airport, 8.0 nm (14.7 km) WSW. Retrieved 2019/07/23 04:00 UTC (33 minutes ago):

RPLC 230400Z 36004KT 7000 SCT020 BKN100 31/25 Q1008 NOSIG RMK A2977

TAF (pilot weather forecast)

Forecast is more than 12 hours old.

Closest forecast is Diosdado Macapagal International Airport, 8.0 nm (14.7 km) WSW. Retrieved 2019/07/22 00:03 UTC (1 day ago):

TAF RPLC 222300Z 2300/2406 22008KT 7000 SCT020 BKN300 TX34/2306Z TN25/2321Z TEMPO 2300/2306 20008KT 6000 TS -SHRA FEW015CB SCT020 BKN100